Time;durP1;ratioP1;P1;durP2;ratioP2;P2;SDS_P1;SDS_P2;PMS_P1;PMS_P2;Temp;Humidity;BMP_temperature;BMP_pressure;BME280_temperature;BME280_humidity;BME280_pressure;Samples;Min_cycle;Max_cycle;Signal;HPM_P1;HPM_P2
2022/06/10 00:01:54;;;;;;;3.05;1.55;;;16.70;99.90;;;;;;4969458;28;20091;-59
2022/06/10 00:04:22;;;;;;;5.53;2.10;;;16.80;99.90;;;;;;4969259;28;20698;-58
2022/06/10 00:06:49;;;;;;;4.40;1.45;;;16.80;99.90;;;;;;4969371;28;20673;-59
2022/06/10 00:09:16;;;;;;;6.53;2.00;;;16.80;99.90;;;;;;4968873;28;20059;-58
2022/06/10 00:11:42;;;;;;;2.85;1.45;;;16.80;99.90;;;;;;4969058;28;20047;-59
2022/06/10 00:14:09;;;;;;;2.20;1.45;;;16.80;99.90;;;;;;4969377;28;20130;-59
2022/06/10 00:16:37;;;;;;;5.28;1.50;;;16.70;99.90;;;;;;4968541;28;20149;-59
2022/06/10 00:19:04;;;;;;;7.88;1.80;;;16.80;99.90;;;;;;4983797;28;20046;-59
2022/06/10 00:21:31;;;;;;;5.90;1.80;;;16.80;99.90;;;;;;4969480;28;20093;-59
2022/06/10 00:23:58;;;;;;;6.35;1.55;;;16.80;99.90;;;;;;4969069;28;20050;-57
2022/06/10 00:26:24;;;;;;;3.70;1.98;;;16.80;99.90;;;;;;4968699;28;20169;-59
2022/06/10 00:28:51;;;;;;;6.93;2.00;;;16.80;99.90;;;;;;4969278;28;20114;-59
2022/06/10 00:31:18;;;;;;;4.45;1.60;;;16.80;99.90;;;;;;4969174;28;20485;-59
2022/06/10 00:33:50;;;;;;;5.53;1.70;;;16.80;99.90;;;;;;4968534;28;20137;-59
2022/06/10 00:36:17;;;;;;;3.35;1.55;;;16.80;99.90;;;;;;4969192;28;20423;-60
2022/06/10 00:38:43;;;;;;;4.70;1.52;;;16.80;99.90;;;;;;4968614;28;20540;-60
2022/06/10 00:41:12;;;;;;;6.43;1.85;;;16.80;99.90;;;;;;4964998;28;20561;-57
2022/06/10 00:43:39;;;;;;;7.30;2.72;;;16.80;99.90;;;;;;4623278;28;10000578;-60
2022/06/10 00:46:20;;;;;;;7.00;2.58;;;16.80;99.90;;;;;;4968509;28;20568;-60
2022/06/10 00:48:49;;;;;;;9.20;2.92;;;16.80;99.90;;;;;;4967638;28;20051;-59
2022/06/10 00:51:57;;;;;;;3.88;2.42;;;16.80;99.90;;;;;;4969023;28;20051;-59
2022/06/10 00:54:24;;;;;;;4.43;2.75;;;16.80;99.90;;;;;;4964115;28;20089;-59
2022/06/10 00:56:53;;;;;;;3.88;2.58;;;16.70;99.90;;;;;;4968662;28;20078;-60
2022/06/10 00:59:22;;;;;;;4.57;2.80;;;16.80;99.90;;;;;;4966649;28;20085;-60
2022/06/10 01:01:52;;;;;;;4.97;2.53;;;16.70;99.90;;;;;;4967608;28;20061;-60
2022/06/10 01:04:19;;;;;;;4.50;2.75;;;16.80;99.90;;;;;;4967749;28;20142;-60
2022/06/10 01:06:45;;;;;;;6.22;2.50;;;16.70;99.90;;;;;;4965293;28;20446;-60
2022/06/10 01:09:12;;;;;;;3.75;2.33;;;16.70;99.90;;;;;;4964346;28;20093;-60
2022/06/10 01:12:17;;;;;;;4.60;2.60;;;16.80;99.90;;;;;;4975048;28;20043;-60
2022/06/10 01:15:23;;;;;;;8.68;2.85;;;16.80;99.90;;;;;;4948687;28;20094;-59
2022/06/10 01:18:02;;;;;;;5.70;2.25;;;16.80;99.90;;;;;;4976331;28;20154;-58
2022/06/10 01:20:36;;;;;;;5.13;2.05;;;16.80;99.90;;;;;;4966506;28;20046;-58
2022/06/10 01:23:05;;;;;;;7.57;2.22;;;16.80;99.90;;;;;;4967448;28;20443;-58
2022/06/10 01:26:03;;;;;;;4.68;2.22;;;16.80;99.90;;;;;;4967821;28;20082;-58
2022/06/10 01:28:35;;;;;;;8.73;3.17;;;16.80;99.90;;;;;;4965198;28;20598;-59
2022/06/10 01:31:20;;;;;;;5.72;2.83;;;16.70;99.90;;;;;;4968125;28;20097;-59
2022/06/10 01:34:13;;;;;;;6.70;2.60;;;16.70;99.90;;;;;;4967769;28;20047;-59
2022/06/10 01:36:49;;;;;;;8.48;2.42;;;16.70;99.90;;;;;;4962394;28;20133;-60
2022/06/10 01:39:24;;;;;;;5.45;2.70;;;16.60;99.90;;;;;;4971375;28;20078;-59
2022/06/10 01:42:14;;;;;;;4.85;2.90;;;16.60;99.90;;;;;;4968134;28;20510;-59
2022/06/10 01:45:02;;;;;;;2.95;2.22;;;16.60;99.90;;;;;;4971835;28;20864;-59
2022/06/10 01:47:41;;;;;;;5.60;3.22;;;16.60;99.90;;;;;;4971882;28;20086;-60
2022/06/10 01:50:11;;;;;;;6.20;2.17;;;16.50;99.90;;;;;;4971861;28;20125;-58
2022/06/10 01:52:48;;;;;;;5.60;2.33;;;16.50;99.90;;;;;;4974061;28;20088;-59
2022/06/10 01:55:19;;;;;;;3.53;2.13;;;16.50;99.90;;;;;;4970023;28;20502;-59
2022/06/10 01:57:52;;;;;;;4.53;2.10;;;16.40;99.90;;;;;;4971504;28;20482;-59
2022/06/10 02:00:20;;;;;;;3.95;2.20;;;16.40;99.90;;;;;;5000792;28;20761;-58
2022/06/10 02:03:04;;;;;;;8.63;2.28;;;16.40;99.90;;;;;;4966839;28;20055;-60
2022/06/10 02:05:36;;;;;;;2.65;1.92;;;16.40;99.90;;;;;;5002150;28;20050;-59
2022/06/10 02:08:11;;;;;;;3.30;1.60;;;16.30;99.90;;;;;;4967003;28;20090;-59
2022/06/10 02:10:51;;;;;;;2.50;1.95;;;16.30;99.90;;;;;;4970502;28;20174;-59
2022/06/10 02:13:21;;;;;;;2.10;1.58;;;16.30;99.90;;;;;;4969670;28;20129;-60
2022/06/10 02:15:52;;;;;;;3.50;1.98;;;16.30;99.90;;;;;;4969928;28;20581;-59
2022/06/10 02:18:40;;;;;;;3.92;1.63;;;16.30;99.90;;;;;;4968977;28;20605;-59
2022/06/10 02:21:12;;;;;;;4.40;1.80;;;16.30;99.90;;;;;;5000792;28;20078;-60
2022/06/10 02:23:43;;;;;;;1.98;1.45;;;16.30;99.90;;;;;;4969778;28;20126;-58
2022/06/10 02:26:10;;;;;;;5.88;1.80;;;16.30;99.90;;;;;;4986021;28;20102;-59
2022/06/10 02:28:48;;;;;;;3.38;1.90;;;16.30;99.90;;;;;;4969728;28;20086;-60
2022/06/10 02:31:38;;;;;;;2.83;2.15;;;16.30;99.90;;;;;;4969947;28;20129;-59
2022/06/10 02:34:05;;;;;;;2.45;1.77;;;16.30;99.90;;;;;;4966634;28;20047;-59
2022/06/10 02:36:42;;;;;;;2.80;1.88;;;16.40;99.90;;;;;;5001277;28;20122;-60
2022/06/10 02:39:37;;;;;;;3.47;2.00;;;16.40;99.90;;;;;;4960927;28;20126;-60
2022/06/10 02:42:10;;;;;;;5.32;2.20;;;16.40;99.90;;;;;;4969726;28;20050;-60
2022/06/10 02:44:49;;;;;;;7.93;3.07;;;16.40;99.90;;;;;;4971337;28;20051;-59
2022/06/10 02:47:29;;;;;;;3.75;2.17;;;16.40;99.90;;;;;;4971206;28;20798;-59
2022/06/10 02:49:56;;;;;;;4.70;2.55;;;16.40;99.90;;;;;;4967452;28;20467;-59
2022/06/10 02:52:24;;;;;;;4.70;2.63;;;16.40;99.90;;;;;;4970941;28;20093;-59
2022/06/10 02:54:51;;;;;;;8.75;3.03;;;16.40;99.90;;;;;;4969242;28;20051;-58
2022/06/10 03:01:11;;;;;;;8.60;2.75;;;16.40;99.90;;;;;;4970435;28;20089;-59
2022/06/10 03:03:01;;;;;;;4.40;2.75;;;16.30;99.90;;;;;;4969564;28;20051;-59
2022/06/10 03:05:33;;;;;;;10.23;3.50;;;16.30;99.90;;;;;;4967751;28;20061;-58
2022/06/10 03:08:14;;;;;;;9.77;3.17;;;16.30;99.90;;;;;;4993784;28;20046;-59
2022/06/10 03:10:55;;;;;;;6.20;2.78;;;16.30;99.90;;;;;;4991665;28;20101;-58
2022/06/10 03:13:25;;;;;;;10.02;3.38;;;16.30;99.90;;;;;;4965460;28;20130;-59
2022/06/10 03:15:51;;;;;;;12.23;3.03;;;16.30;99.90;;;;;;4976573;28;20137;-59
2022/06/10 03:18:24;;;;;;;11.82;3.67;;;16.30;99.90;;;;;;4970208;28;20047;-59
2022/06/10 03:20:57;;;;;;;13.98;3.55;;;16.40;99.90;;;;;;4969769;28;20074;-59
2022/06/10 03:23:30;;;;;;;14.13;4.85;;;16.30;99.90;;;;;;4968080;28;20078;-58
2022/06/10 03:26:08;;;;;;;;;;;16.30;99.90;;;;;;4968711;28;20445;-59
2022/06/10 03:28:55;;;;;;;12.60;3.95;;;16.30;99.90;;;;;;4961226;28;20652;-59
2022/06/10 03:31:39;;;;;;;8.10;3.38;;;16.30;99.90;;;;;;4967612;28;20090;-59
2022/06/10 03:34:12;;;;;;;14.80;4.68;;;16.40;99.90;;;;;;4998668;28;20502;-60
2022/06/10 03:36:38;;;;;;;21.55;7.03;;;16.30;99.90;;;;;;4984511;28;20043;-58
2022/06/10 03:39:06;;;;;;;7.78;3.92;;;16.30;99.90;;;;;;4969031;28;20221;-59
2022/06/10 03:41:35;;;;;;;14.57;4.97;;;16.30;99.90;;;;;;4969102;28;20086;-59
2022/06/10 03:44:03;;;;;;;14.80;4.78;;;16.30;99.90;;;;;;4964681;28;20130;-59
2022/06/10 03:46:31;;;;;;;13.70;4.28;;;16.30;99.90;;;;;;4968656;28;20054;-58
2022/06/10 03:49:01;;;;;;;20.27;5.03;;;16.30;99.90;;;;;;4969766;28;20093;-59
2022/06/10 03:51:28;;;;;;;17.20;3.70;;;16.30;99.90;;;;;;4968211;28;20565;-59
2022/06/10 03:53:56;;;;;;;15.68;4.47;;;16.20;99.90;;;;;;4966786;28;20047;-59
2022/06/10 03:56:23;;;;;;;21.15;4.70;;;16.20;99.90;;;;;;4969150;28;20532;-59
2022/06/10 03:58:50;;;;;;;27.15;5.20;;;16.10;99.90;;;;;;4969766;28;20137;-60
2022/06/10 04:01:17;;;;;;;24.27;5.72;;;16.10;99.90;;;;;;4969345;28;20085;-59
2022/06/10 04:03:43;;;;;;;16.90;4.07;;;16.10;99.90;;;;;;4965795;28;20470;-61
2022/06/10 04:06:11;;;;;;;23.98;4.50;;;16.10;99.90;;;;;;4969220;28;20046;-59
2022/06/10 04:08:57;;;;;;;19.98;5.18;;;16.10;99.90;;;;;;4962084;28;20051;-60
2022/06/10 04:11:31;;;;;;;20.77;4.80;;;16.10;99.90;;;;;;4968968;28;21642;-59
2022/06/10 04:13:57;;;;;;;32.53;4.90;;;16.00;99.90;;;;;;4969554;28;20050;-59
2022/06/10 04:16:26;;;;;;;19.35;4.45;;;16.00;99.90;;;;;;4969112;28;20141;-59
2022/06/10 04:18:53;;;;;;;18.92;4.68;;;15.90;99.90;;;;;;4968817;28;20061;-59
2022/06/10 04:21:20;;;;;;;23.55;5.40;;;15.90;99.90;;;;;;4969038;28;20125;-60
2022/06/10 04:23:47;;;;;;;24.50;5.20;;;15.90;99.90;;;;;;4969528;28;20093;-59
2022/06/10 04:26:13;;;;;;;14.80;4.63;;;15.90;99.90;;;;;;4982630;28;20548;-59
2022/06/10 04:28:41;;;;;;;17.05;5.03;;;15.90;99.90;;;;;;4968792;28;20237;-58
2022/06/10 04:31:07;;;;;;;15.75;5.28;;;15.90;99.90;;;;;;4968907;28;20490;-59
2022/06/10 04:33:35;;;;;;;14.68;3.83;;;16.00;99.90;;;;;;4968936;28;20112;-58
2022/06/10 04:36:02;;;;;;;28.65;5.13;;;16.00;99.90;;;;;;4968681;28;20057;-59
2022/06/10 04:38:29;;;;;;;26.73;4.88;;;16.00;99.90;;;;;;4969099;28;20070;-57
2022/06/10 04:40:56;;;;;;;24.05;3.97;;;16.00;99.90;;;;;;4968573;28;20476;-59
2022/06/10 04:43:23;;;;;;;17.52;4.70;;;16.00;99.90;;;;;;4964000;28;20114;-58
2022/06/10 04:45:52;;;;;;;26.02;5.43;;;16.10;99.90;;;;;;4966947;28;20097;-59
2022/06/10 04:48:19;;;;;;;18.92;4.30;;;16.10;99.90;;;;;;4992499;28;20227;-58
2022/06/10 04:50:47;;;;;;;16.75;3.85;;;16.10;99.90;;;;;;4968862;28;20077;-56
2022/06/10 04:53:14;;;;;;;18.17;3.88;;;16.10;99.90;;;;;;4968652;28;20059;-58
2022/06/10 04:55:41;;;;;;;17.40;5.18;;;16.10;99.90;;;;;;4968270;28;20050;-57
2022/06/10 04:58:08;;;;;;;26.80;5.20;;;16.20;99.90;;;;;;4965329;28;20062;-59
2022/06/10 05:00:38;;;;;;;18.50;4.63;;;16.20;99.90;;;;;;4967019;28;20098;-57
2022/06/10 05:03:05;;;;;;;22.00;3.97;;;16.20;99.90;;;;;;4965561;28;20046;-60
2022/06/10 05:05:32;;;;;;;19.30;4.55;;;16.20;99.90;;;;;;4964797;28;20058;-60
2022/06/10 05:07:59;;;;;;;19.30;4.22;;;16.10;99.90;;;;;;4966056;28;20054;-59
2022/06/10 05:10:26;;;;;;;25.35;4.82;;;16.20;99.90;;;;;;4967051;28;20139;-59
2022/06/10 05:12:53;;;;;;;20.73;4.25;;;16.20;99.90;;;;;;4967630;28;20050;-59
2022/06/10 05:15:20;;;;;;;17.45;3.78;;;16.20;99.90;;;;;;4967936;28;20134;-59
2022/06/10 05:17:51;;;;;;;27.30;4.47;;;16.10;99.90;;;;;;4968002;28;20074;-65
2022/06/10 05:20:22;;;;;;;19.55;4.70;;;16.10;99.90;;;;;;4967229;28;20043;-59
2022/06/10 05:22:49;;;;;;;17.92;4.07;;;16.10;99.90;;;;;;4967278;28;20142;-59
2022/06/10 05:25:15;;;;;;;15.82;3.53;;;16.10;99.90;;;;;;4968158;28;20055;-58
2022/06/10 05:27:42;;;;;;;22.73;3.85;;;16.10;99.90;;;;;;4968021;28;20081;-58
2022/06/10 05:30:12;;;;;;;21.55;3.85;;;16.10;99.90;;;;;;4967720;28;20054;-60
2022/06/10 05:32:39;;;;;;;21.08;3.95;;;16.10;99.90;;;;;;4966249;28;20055;-61
2022/06/10 05:35:06;;;;;;;20.92;4.82;;;16.10;99.90;;;;;;4967753;28;20125;-60
2022/06/10 05:37:33;;;;;;;19.45;5.43;;;16.20;99.90;;;;;;4967824;28;20134;-62
2022/06/10 05:40:00;;;;;;;15.25;3.75;;;16.20;99.90;;;;;;4967460;28;20043;-60
2022/06/10 05:42:27;;;;;;;13.25;3.78;;;16.20;99.90;;;;;;4968040;28;20130;-60
2022/06/10 05:44:54;;;;;;;20.95;4.60;;;16.20;99.90;;;;;;4967453;28;20179;-58
2022/06/10 05:47:29;;;;;;;21.40;4.68;;;16.30;99.90;;;;;;4967565;28;20125;-59
2022/06/10 05:49:58;;;;;;;15.70;5.03;;;16.30;99.90;;;;;;4963808;28;20078;-58
2022/06/10 05:52:26;;;;;;;21.10;4.75;;;16.20;99.90;;;;;;4967678;28;20050;-59
2022/06/10 05:54:56;;;;;;;22.70;4.38;;;16.20;99.90;;;;;;4967363;28;20091;-59
2022/06/10 05:57:23;;;;;;;38.88;8.23;;;16.30;99.90;;;;;;4967277;28;20274;-57
2022/06/10 05:59:52;;;;;;;27.08;5.75;;;16.30;99.90;;;;;;4966608;28;20102;-60
2022/06/10 06:02:19;;;;;;;22.23;4.95;;;16.30;99.90;;;;;;4964920;28;20564;-56
2022/06/10 06:04:46;;;;;;;22.75;4.85;;;16.30;99.90;;;;;;4967628;28;20055;-58
2022/06/10 06:07:21;;;;;;;12.50;4.18;;;16.40;99.90;;;;;;4967921;28;20082;-59
2022/06/10 06:09:48;;;;;;;20.48;4.50;;;16.40;99.90;;;;;;4965175;28;20138;-57
2022/06/10 06:12:15;;;;;;;16.08;3.95;;;16.50;99.90;;;;;;4967723;28;20560;-59
2022/06/10 06:14:42;;;;;;;24.55;6.68;;;16.50;99.90;;;;;;4967420;28;20051;-57
2022/06/10 06:17:10;;;;;;;23.63;4.45;;;16.50;99.90;;;;;;4967680;28;20070;-57
2022/06/10 06:19:36;;;;;;;27.35;5.47;;;16.50;99.90;;;;;;4965069;28;20490;-55
2022/06/10 06:22:04;;;;;;;29.55;6.50;;;16.50;99.90;;;;;;4966603;28;20562;-58
2022/06/10 06:24:36;;;;;;;24.17;4.38;;;16.50;99.90;;;;;;4968116;28;20401;-58
2022/06/10 06:27:03;;;;;;;22.30;4.05;;;16.50;99.90;;;;;;4970653;28;20050;-58
2022/06/10 06:29:30;;;;;;;16.67;4.82;;;16.60;99.90;;;;;;4970996;28;20074;-56
2022/06/10 06:31:57;;;;;;;20.50;5.13;;;16.60;99.90;;;;;;4994630;28;20101;-57
2022/06/10 06:34:24;;;;;;;19.60;4.43;;;16.60;99.90;;;;;;4970379;28;20050;-57
2022/06/10 06:36:52;;;;;;;22.65;5.55;;;16.70;99.90;;;;;;4967045;28;20139;-58
2022/06/10 06:39:21;;;;;;;21.02;4.15;;;16.70;99.90;;;;;;4970071;28;20494;-57
2022/06/10 06:41:48;;;;;;;19.55;4.82;;;16.70;99.90;;;;;;4969225;28;20128;-60
2022/06/10 06:44:15;;;;;;;22.85;4.30;;;16.80;99.90;;;;;;4623247;28;10000457;-60
2022/06/10 06:46:42;;;;;;;23.13;6.68;;;16.80;99.90;;;;;;4966557;28;20146;-60
2022/06/10 06:49:21;;;;;;;21.25;4.80;;;16.80;99.90;;;;;;4967344;28;20082;-63
2022/06/10 06:51:49;;;;;;;24.45;5.18;;;16.90;99.90;;;;;;4967463;28;20442;-59
2022/06/10 06:54:16;;;;;;;19.15;5.40;;;16.90;99.90;;;;;;4966101;28;20093;-57
2022/06/10 06:56:43;;;;;;;17.58;4.00;;;16.90;99.90;;;;;;4966098;28;20233;-56
2022/06/10 06:59:10;;;;;;;21.17;4.43;;;17.00;99.90;;;;;;4965585;28;20073;-57
2022/06/10 07:01:37;;;;;;;19.63;6.07;;;17.10;99.90;;;;;;4964155;28;20541;-58
2022/06/10 07:04:04;;;;;;;18.23;4.80;;;17.10;99.90;;;;;;4964700;28;20062;-58
2022/06/10 07:06:35;;;;;;;16.42;4.07;;;17.20;99.90;;;;;;4965446;28;20067;-59
2022/06/10 07:09:03;;;;;;;22.35;3.75;;;17.20;99.90;;;;;;4963464;28;20129;-58
2022/06/10 07:11:31;;;;;;;22.73;4.60;;;17.20;99.90;;;;;;4963953;28;20129;-62
2022/06/10 07:13:58;;;;;;;26.48;5.55;;;17.30;99.90;;;;;;4964038;28;20059;-57
2022/06/10 07:16:24;;;;;;;24.45;4.70;;;17.30;99.90;;;;;;4965754;28;20086;-58
2022/06/10 07:18:52;;;;;;;27.15;5.68;;;17.40;99.90;;;;;;4965085;28;20059;-58
2022/06/10 07:21:19;;;;;;;18.92;4.97;;;17.50;99.90;;;;;;4966086;28;20082;-56
2022/06/10 07:23:45;;;;;;;16.95;4.78;;;17.60;99.90;;;;;;4966102;28;20107;-58
2022/06/10 07:26:12;;;;;;;26.35;5.20;;;17.70;99.90;;;;;;4966227;28;20097;-59
2022/06/10 07:28:39;;;;;;;18.10;3.75;;;17.70;99.90;;;;;;4966566;28;20165;-57
2022/06/10 07:31:06;;;;;;;21.23;3.63;;;17.80;99.90;;;;;;4965674;28;20141;-58
2022/06/10 07:33:35;;;;;;;23.52;4.32;;;17.90;99.90;;;;;;4980628;28;20482;-58
2022/06/10 07:36:05;;;;;;;22.05;4.88;;;17.90;99.90;;;;;;4966166;28;20054;-58
2022/06/10 07:38:32;;;;;;;19.50;4.38;;;17.90;99.90;;;;;;4967740;28;20046;-59
2022/06/10 07:43:45;;;;;;;20.50;3.85;;;18.00;99.90;;;;;;4966435;28;20046;-59
2022/06/10 07:46:15;;;;;;;13.80;4.28;;;18.10;99.90;;;;;;4967629;28;20053;-58
2022/06/10 07:48:43;;;;;;;12.95;4.22;;;18.10;99.90;;;;;;4968116;28;20047;-57
2022/06/10 07:51:10;;;;;;;22.85;5.10;;;18.20;99.90;;;;;;4965238;28;20561;-58
2022/06/10 07:53:39;;;;;;;13.20;3.58;;;18.30;99.90;;;;;;4969019;28;20518;-57
2022/06/10 07:56:06;;;;;;;11.82;4.38;;;18.30;99.90;;;;;;4966498;28;20158;-57
2022/06/10 07:58:33;;;;;;;19.80;4.13;;;18.20;99.90;;;;;;4967487;28;20129;-57
2022/06/10 08:01:00;;;;;;;18.42;4.72;;;18.30;99.90;;;;;;4983506;28;20057;-58
2022/06/10 08:03:27;;;;;;;19.42;4.47;;;18.40;99.90;;;;;;4968516;28;20105;-57
2022/06/10 08:05:54;;;;;;;17.27;4.25;;;18.50;99.90;;;;;;4969044;28;20050;-57
2022/06/10 08:08:21;;;;;;;23.10;4.60;;;18.60;99.90;;;;;;4968612;28;20097;-57
2022/06/10 08:10:48;;;;;;;20.65;4.78;;;18.60;99.90;;;;;;4968392;28;20105;-61
2022/06/10 08:13:15;;;;;;;19.25;4.63;;;18.60;99.90;;;;;;4969161;28;20063;-56
2022/06/10 08:15:42;;;;;;;24.25;5.95;;;18.70;99.90;;;;;;4968724;28;20170;-58
2022/06/10 08:18:09;;;;;;;22.60;4.00;;;18.70;99.90;;;;;;4967722;28;20078;-56
2022/06/10 08:23:25;;;;;;;21.38;4.32;;;19.00;99.90;;;;;;4968554;28;20486;-58
2022/06/10 08:25:52;;;;;;;17.85;4.22;;;19.10;99.90;;;;;;4968121;28;20092;-57
2022/06/10 08:28:19;;;;;;;17.95;3.65;;;19.20;99.90;;;;;;4968137;28;20126;-60
2022/06/10 08:30:45;;;;;;;17.60;3.92;;;19.20;99.90;;;;;;4981869;28;20194;-57
2022/06/10 08:33:12;;;;;;;19.02;4.10;;;19.30;99.90;;;;;;4967137;28;20477;-56
2022/06/10 08:35:39;;;;;;;13.43;4.25;;;19.30;99.90;;;;;;4966900;28;20093;-57
2022/06/10 08:38:07;;;;;;;13.32;3.83;;;19.30;99.90;;;;;;4965210;28;21572;-57
2022/06/10 08:41:01;;;;;;;15.80;3.92;;;19.30;99.90;;;;;;4961530;28;20101;-57
2022/06/10 08:43:41;;;;;;;20.52;4.72;;;19.50;99.90;;;;;;4963405;28;20129;-57
2022/06/10 08:46:36;;;;;;;16.67;4.35;;;19.60;99.90;;;;;;4966639;28;20070;-56
2022/06/10 08:49:41;;;;;;;21.25;5.35;;;19.50;99.90;;;;;;4965600;28;20047;-56
2022/06/10 08:52:11;;;;;;;13.48;4.65;;;19.30;99.90;;;;;;4967475;28;20129;-57
2022/06/10 08:54:40;;;;;;;21.92;4.60;;;19.30;99.90;;;;;;4962988;28;20066;-57
2022/06/10 08:57:32;;;;;;;16.98;3.97;;;19.30;99.90;;;;;;4964866;28;20142;-57
2022/06/10 08:59:59;;;;;;;15.38;3.63;;;19.20;99.90;;;;;;4960379;28;20482;-60
2022/06/10 09:02:39;;;;;;;12.40;3.10;;;19.30;99.90;;;;;;4989895;28;20062;-57
2022/06/10 09:05:15;;;;;;;25.80;4.55;;;19.20;99.90;;;;;;4990852;28;20051;-58
2022/06/10 09:07:45;;;;;;;20.60;5.07;;;19.20;99.90;;;;;;4996172;28;20105;-56
2022/06/10 09:10:36;;;;;;;13.65;3.80;;;19.30;99.90;;;;;;4951661;28;20079;-57
2022/06/10 09:13:10;;;;;;;21.05;5.57;;;19.30;99.90;;;;;;4959360;28;20047;-58
2022/06/10 09:15:57;;;;;;;24.83;4.53;;;19.30;99.90;;;;;;4963576;28;20090;-57
2022/06/10 09:18:42;;;;;;;13.77;4.10;;;19.40;99.90;;;;;;4968332;28;20050;-57
2022/06/10 09:21:49;;;;;;;13.63;3.65;;;19.40;99.90;;;;;;4968070;28;21007;-58
2022/06/10 09:24:45;;;;;;;14.82;3.90;;;19.40;99.90;;;;;;4946057;28;20125;-57
2022/06/10 09:27:25;;;;;;;15.60;5.75;;;19.40;99.90;;;;;;4966856;28;20054;-57
2022/06/10 09:29:52;;;;;;;15.63;3.90;;;19.40;99.90;;;;;;4968021;28;20066;-58
2022/06/10 09:32:33;;;;;;;17.20;4.13;;;19.40;99.90;;;;;;4968318;28;20097;-56
2022/06/10 09:35:05;;;;;;;13.55;3.97;;;19.40;99.90;;;;;;4968179;28;20047;-57
2022/06/10 09:37:59;;;;;;;13.77;4.03;;;19.60;99.90;;;;;;4988173;28;20078;-57
2022/06/10 09:40:37;;;;;;;14.88;4.10;;;19.80;99.90;;;;;;4963688;28;20082;-57
2022/06/10 09:43:23;;;;;;;15.18;3.65;;;19.90;99.90;;;;;;4968324;28;20055;-55
2022/06/10 09:46:07;;;;;;;9.80;3.30;;;19.90;99.90;;;;;;4966027;28;20051;-57
2022/06/10 09:48:39;;;;;;;13.00;3.38;;;19.80;99.90;;;;;;4967664;28;20129;-55
2022/06/10 09:51:22;;;;;;;13.90;3.33;;;19.80;99.90;;;;;;4967703;28;20078;-53
2022/06/10 09:54:20;;;;;;;17.00;3.80;;;20.00;99.90;;;;;;4966535;28;20288;-57
2022/06/10 09:56:53;;;;;;;14.40;3.78;;;20.10;99.90;;;;;;4967218;28;20233;-57
2022/06/10 09:59:23;;;;;;;23.83;4.80;;;20.20;99.90;;;;;;4969550;28;20082;-57
2022/06/10 10:01:52;;;;;;;8.98;3.25;;;20.40;99.90;;;;;;4971522;28;20065;-54
2022/06/10 10:04:48;;;;;;;18.63;4.32;;;20.50;99.90;;;;;;4971425;28;20077;-56
2022/06/10 10:07:34;;;;;;;11.32;3.33;;;20.50;99.90;;;;;;4967473;28;20082;-55
2022/06/10 10:10:23;;;;;;;11.55;3.20;;;20.50;99.90;;;;;;4970026;28;20082;-56
2022/06/10 10:13:09;;;;;;;11.70;4.55;;;20.40;99.90;;;;;;4970378;28;20069;-57
2022/06/10 10:16:12;;;;;;;16.10;3.80;;;20.70;99.90;;;;;;4970663;28;20564;-57
2022/06/10 10:19:09;;;;;;;13.20;5.10;;;21.30;99.90;;;;;;4971294;28;20054;-57
2022/06/10 10:21:51;;;;;;;14.65;2.97;;;21.70;99.80;;;;;;4969925;28;20504;-60
2022/06/10 10:24:24;;;;;;;11.70;3.15;;;22.20;99.00;;;;;;4971196;28;20047;-58
2022/06/10 10:26:51;;;;;;;10.52;2.75;;;22.20;99.70;;;;;;4971072;28;20565;-58
2022/06/10 10:29:32;;;;;;;17.05;3.75;;;22.40;99.90;;;;;;4973616;28;20129;-58
2022/06/10 10:32:10;;;;;;;8.15;2.33;;;22.70;98.70;;;;;;4969473;28;20602;-58
2022/06/10 10:34:38;;;;;;;9.88;3.30;;;23.10;97.40;;;;;;4969491;28;20066;-57
2022/06/10 10:37:30;;;;;;;15.23;3.47;;;23.30;99.30;;;;;;4971233;28;20074;-58
2022/06/10 10:40:05;;;;;;;13.38;3.80;;;23.50;95.80;;;;;;4963392;28;20043;-58
2022/06/10 10:42:37;;;;;;;16.33;3.33;;;23.00;95.00;;;;;;4971367;28;20046;-58
2022/06/10 10:45:07;;;;;;;17.02;3.95;;;23.00;95.50;;;;;;4979267;28;20078;-58
2022/06/10 10:47:35;;;;;;;12.73;2.83;;;22.80;96.60;;;;;;4971158;28;20141;-58
2022/06/10 10:50:03;;;;;;;11.52;3.05;;;22.80;95.70;;;;;;4969278;28;20122;-57
2022/06/10 10:52:40;;;;;;;14.77;3.95;;;22.80;96.90;;;;;;4970374;28;20411;-59
2022/06/10 10:55:13;;;;;;;10.32;2.90;;;22.90;96.70;;;;;;4963082;28;20121;-57
2022/06/10 10:57:45;;;;;;;16.63;3.40;;;23.10;96.60;;;;;;4971011;28;20162;-57
2022/06/10 11:00:12;;;;;;;17.60;3.58;;;23.00;95.90;;;;;;4952854;28;20054;-56
2022/06/10 11:02:41;;;;;;;9.82;2.80;;;22.80;96.10;;;;;;4970219;28;20135;-57
2022/06/10 11:05:35;;;;;;;13.07;3.00;;;22.80;95.70;;;;;;4967092;28;20117;-57
2022/06/10 11:08:19;;;;;;;9.32;2.92;;;22.60;92.40;;;;;;4969305;28;20102;-57
2022/06/10 11:11:23;;;;;;;10.75;3.15;;;22.30;93.50;;;;;;4961744;28;20059;-57
2022/06/10 11:14:03;;;;;;;14.10;3.30;;;22.10;93.20;;;;;;4967180;28;20494;-58
2022/06/10 11:16:39;;;;;;;18.95;3.58;;;22.10;94.50;;;;;;4967883;28;20086;-58
2022/06/10 11:19:11;;;;;;;11.88;4.10;;;22.40;95.60;;;;;;4969414;28;20628;-58
2022/06/10 11:22:03;;;;;;;15.00;3.28;;;22.40;93.20;;;;;;4965782;28;20134;-58
2022/06/10 11:24:36;;;;;;;16.95;3.58;;;22.30;94.90;;;;;;4967256;28;20093;-58
2022/06/10 11:27:26;;;;;;;17.00;3.95;;;22.40;93.60;;;;;;4984702;28;20086;-57
2022/06/10 11:30:01;;;;;;;14.15;4.00;;;22.60;94.40;;;;;;4964212;28;20051;-57
2022/06/10 11:32:32;;;;;;;17.95;4.78;;;22.70;94.80;;;;;;4969367;28;20371;-59
2022/06/10 11:35:21;;;;;;;13.68;3.42;;;22.70;95.20;;;;;;4969883;28;20133;-55
2022/06/10 11:37:49;;;;;;;19.80;3.70;;;22.60;95.20;;;;;;4968445;28;20086;-57
2022/06/10 11:40:21;;;;;;;13.88;4.53;;;22.40;94.60;;;;;;4968882;28;20051;-55
2022/06/10 11:43:05;;;;;;;13.13;3.72;;;22.30;95.50;;;;;;4968059;28;20078;-56
2022/06/10 11:45:37;;;;;;;13.60;3.22;;;22.20;93.70;;;;;;4968392;28;20134;-57
2022/06/10 11:48:17;;;;;;;14.02;3.17;;;22.20;93.60;;;;;;4967881;28;20054;-56
2022/06/10 11:50:55;;;;;;;13.40;2.83;;;22.10;93.90;;;;;;4984009;28;20130;-57
2022/06/10 11:53:30;;;;;;;16.95;4.38;;;22.20;94.50;;;;;;4968224;28;20582;-58
2022/06/10 12:01:31;;;;;;;14.38;3.42;;;22.60;93.90;;;;;;4967550;28;20086;-58
2022/06/10 12:04:21;;;;;;;15.10;3.08;;;22.60;93.80;;;;;;4968264;28;20078;-57
2022/06/10 12:06:59;;;;;;;16.60;3.53;;;22.60;94.10;;;;;;4968170;28;20057;-58
2022/06/10 12:09:28;;;;;;;12.30;3.50;;;22.70;93.70;;;;;;4971989;28;20074;-58
2022/06/10 12:12:10;;;;;;;13.60;3.40;;;22.60;93.90;;;;;;4969361;28;20105;-57
2022/06/10 12:14:42;;;;;;;10.18;2.45;;;22.70;93.20;;;;;;4974225;28;20185;-58
2022/06/10 12:17:12;;;;;;;20.10;3.75;;;22.90;94.80;;;;;;4981773;28;20055;-58
2022/06/10 12:19:44;;;;;;;9.93;2.65;;;22.90;94.40;;;;;;4968182;28;20046;-57
2022/06/10 12:22:11;;;;;;;10.57;2.47;;;23.00;93.40;;;;;;4969296;28;20039;-60
2022/06/10 12:24:39;;;;;;;18.25;3.38;;;23.20;93.80;;;;;;4969058;28;20053;-59
2022/06/10 12:27:24;;;;;;;12.63;3.53;;;23.30;93.80;;;;;;4969118;28;20081;-59
2022/06/10 12:30:06;;;;;;;9.80;2.40;;;23.40;92.80;;;;;;4967735;28;20051;-58
2022/06/10 12:32:36;;;;;;;16.05;3.30;;;23.30;91.40;;;;;;4963588;28;20101;-59
2022/06/10 12:35:17;;;;;;;15.52;2.90;;;23.30;93.20;;;;;;4969238;28;20098;-59
2022/06/10 12:37:59;;;;;;;16.95;4.60;;;23.30;91.90;;;;;;4967404;28;20525;-58
2022/06/10 12:40:35;;;;;;;15.85;2.92;;;23.40;93.90;;;;;;4999605;28;20135;-59
2022/06/10 12:43:06;;;;;;;16.58;3.60;;;23.40;93.40;;;;;;4968971;28;20491;-59
2022/06/10 12:45:39;;;;;;;14.05;2.75;;;23.50;93.50;;;;;;4968507;28;20053;-61
2022/06/10 12:48:12;;;;;;;11.25;3.72;;;23.50;92.90;;;;;;4967169;28;20043;-59
2022/06/10 12:50:48;;;;;;;14.80;2.70;;;23.40;91.50;;;;;;4983588;28;20042;-59
2022/06/10 12:53:34;;;;;;;13.80;3.88;;;23.50;93.40;;;;;;4968237;28;20061;-59
2022/06/10 12:56:01;;;;;;;21.33;4.53;;;23.70;94.30;;;;;;4971287;28;20042;-59
2022/06/10 12:58:37;;;;;;;21.40;4.50;;;23.70;93.10;;;;;;4965091;28;20490;-57
2022/06/10 13:01:22;;;;;;;13.15;3.63;;;23.40;90.40;;;;;;4966584;28;20331;-59
2022/06/10 13:03:53;;;;;;;19.42;3.33;;;23.20;89.90;;;;;;4991750;28;20047;-59
2022/06/10 13:06:43;;;;;;;14.18;2.83;;;23.10;92.70;;;;;;4969039;28;20137;-58
2022/06/10 13:09:10;;;;;;;12.48;3.15;;;23.20;92.20;;;;;;4966154;28;20357;-58
2022/06/10 13:11:37;;;;;;;13.27;3.58;;;23.40;93.90;;;;;;4968088;28;20093;-58
2022/06/10 13:14:19;;;;;;;19.40;4.13;;;23.50;93.20;;;;;;4968724;28;20086;-58
2022/06/10 13:16:48;;;;;;;15.75;3.45;;;23.40;92.20;;;;;;4929864;29;20424;-59
2022/06/10 13:19:36;;;;;;;12.38;3.80;;;23.50;94.10;;;;;;4927870;29;20098;-57
2022/06/10 13:22:22;;;;;;;14.80;3.40;;;23.40;93.10;;;;;;4929464;29;20468;-58
2022/06/10 13:24:52;;;;;;;11.98;3.33;;;23.50;93.40;;;;;;4929444;28;20051;-60
2022/06/10 13:27:26;;;;;;;17.80;3.70;;;23.60;93.10;;;;;;4929839;29;20091;-59